Time;durP1;ratioP1;P1;durP2;ratioP2;P2;SDS_P1;SDS_P2;PMS_P1;PMS_P2;Temp;Humidity;BMP_temperature;BMP_pressure;BME280_temperature;BME280_humidity;BME280_pressure;Samples;Min_cycle;Max_cycle;Signal;HPM_P1;HPM_P2
2023/10/12 00:00:33;;;;;;;11.37;5.07;;;;;19.40;100578.00;;;;5027139;28;20668;-73
2023/10/12 00:03:20;;;;;;;12.63;5.07;;;;;19.30;100571.00;;;;5019257;28;20283;-74
2023/10/12 00:06:08;;;;;;;12.30;5.50;;;;;19.40;100569.00;;;;5027321;28;20271;-73
2023/10/12 00:08:54;;;;;;;10.93;4.93;;;;;19.40;100559.00;;;;5027033;28;20289;-70
2023/10/12 00:11:46;;;;;;;13.00;5.03;;;;;19.50;100545.00;;;;5027303;28;20825;-71
2023/10/12 00:14:33;;;;;;;10.40;5.20;;;;;19.50;100566.00;;;;5026143;28;20244;-74
2023/10/12 00:17:19;;;;;;;13.00;4.87;;;;;19.40;100573.00;;;;5024503;28;20207;-72
2023/10/12 00:20:08;;;;;;;11.10;4.97;;;;;19.30;100579.00;;;;5023654;28;20203;-74
2023/10/12 00:22:55;;;;;;;13.90;5.17;;;;;19.30;100572.00;;;;5018861;28;20237;-72
2023/10/12 00:25:46;;;;;;;12.83;5.70;;;;;19.20;100580.00;;;;5020572;28;20219;-73
2023/10/12 00:28:38;;;;;;;11.50;5.10;;;;;19.20;100601.00;;;;5021556;28;20586;-71
2023/10/12 00:31:25;;;;;;;16.07;5.10;;;;;19.20;100588.00;;;;5018615;28;20230;-72
2023/10/12 00:34:14;;;;;;;12.70;5.20;;;;;19.20;100587.00;;;;5017502;28;20234;-73
2023/10/12 00:37:03;;;;;;;11.87;5.10;;;;;19.20;100595.00;;;;5023799;28;20217;-71
2023/10/12 00:39:58;;;;;;;9.00;4.93;;;;;19.20;100610.00;;;;5025804;28;20283;-71
2023/10/12 00:42:51;;;;;;;9.70;4.87;;;;;19.20;100611.00;;;;5023443;28;20267;-70
2023/10/12 00:45:38;;;;;;;8.90;4.97;;;;;19.20;100615.00;;;;5022042;28;20209;-73
2023/10/12 00:48:30;;;;;;;10.97;5.60;;;;;19.10;100607.00;;;;5019583;28;20210;-70
2023/10/12 00:51:17;;;;;;;11.33;5.70;;;;;19.10;100606.00;;;;5026536;28;20705;-72
2023/10/12 00:54:10;;;;;;;15.20;5.27;;;;;19.00;100604.00;;;;5031008;28;20284;-71
2023/10/12 00:56:58;;;;;;;10.60;5.20;;;;;18.90;100623.00;;;;5028495;28;20221;-74
2023/10/12 00:59:46;;;;;;;12.77;5.13;;;;;18.90;100631.00;;;;5024819;28;20218;-72
2023/10/12 01:02:39;;;;;;;11.27;5.67;;;;;18.90;100627.00;;;;5025385;28;20350;-72
2023/10/12 01:05:25;;;;;;;13.20;5.53;;;;;18.90;100631.00;;;;5019396;28;20205;-71
2023/10/12 01:08:18;;;;;;;12.27;5.63;;;;;18.80;100637.00;;;;5030518;28;20214;-71
2023/10/12 01:11:07;;;;;;;13.80;5.93;;;;;18.70;100636.00;;;;5028074;28;20704;-71
2023/10/12 01:14:07;;;;;;;9.60;5.90;;;;;18.70;100630.00;;;;5026691;28;20228;-74
2023/10/12 01:16:58;;;;;;;10.80;6.20;;;;;18.60;100627.00;;;;5017818;28;20589;-71
2023/10/12 01:19:45;;;;;;;16.90;7.17;;;;;18.70;100637.00;;;;5030882;28;20215;-73
2023/10/12 01:22:34;;;;;;;12.97;6.57;;;;;18.50;100626.00;;;;5022104;28;20226;-76
2023/10/12 01:25:21;;;;;;;14.67;7.50;;;;;18.50;100648.00;;;;5028725;28;20227;-73
2023/10/12 01:28:12;;;;;;;14.97;7.20;;;;;18.40;100652.00;;;;5028351;28;20212;-72
2023/10/12 01:30:58;;;;;;;14.93;7.17;;;;;18.30;100651.00;;;;5026457;28;20262;-71
2023/10/12 01:33:50;;;;;;;14.37;7.33;;;;;18.20;100648.00;;;;5024716;28;20257;-71
2023/10/12 01:36:37;;;;;;;13.07;7.90;;;;;18.20;100660.00;;;;5022989;28;20214;-72
2023/10/12 01:39:28;;;;;;;14.90;7.90;;;;;18.20;100666.00;;;;5025961;28;20218;-72
2023/10/12 01:42:20;;;;;;;15.37;8.37;;;;;18.10;100670.00;;;;5027850;28;20608;-73
2023/10/12 01:45:17;;;;;;;14.47;7.77;;;;;18.10;100667.00;;;;5028945;28;20585;-72
2023/10/12 01:48:10;;;;;;;16.77;8.57;;;;;18.10;100666.00;;;;5027966;28;20225;-72
2023/10/12 01:50:56;;;;;;;14.17;8.30;;;;;18.00;100675.00;;;;5029332;28;20251;-73
2023/10/12 01:53:43;;;;;;;16.73;9.83;;;;;18.00;100669.00;;;;5024280;28;20230;-71
2023/10/12 01:56:31;;;;;;;17.60;10.27;;;;;17.90;100681.00;;;;5023572;28;20292;-72
2023/10/12 01:59:19;;;;;;;23.07;10.20;;;;;17.90;100688.00;;;;5026836;28;20333;-72
2023/10/12 02:02:08;;;;;;;23.17;12.33;;;;;18.00;100698.00;;;;5022826;28;20229;-70
2023/10/12 02:04:54;;;;;;;20.70;11.13;;;;;17.90;100687.00;;;;5028822;28;20252;-75
2023/10/12 02:07:41;;;;;;;26.50;12.03;;;;;18.00;100698.00;;;;5029016;28;20209;-70
2023/10/12 02:10:34;;;;;;;23.07;12.27;;;;;18.00;100696.00;;;;5021961;28;20715;-73
2023/10/12 02:13:21;;;;;;;22.90;11.70;;;;;17.90;100710.00;;;;5015337;28;20281;-71
2023/10/12 02:16:12;;;;;;;25.77;12.37;;;;;17.90;100705.00;;;;5028632;28;20213;-71
2023/10/12 02:19:01;;;;;;;24.23;13.00;;;;;17.90;100714.00;;;;5027786;28;20292;-71
2023/10/12 02:21:47;;;;;;;25.20;13.40;;;;;17.90;100705.00;;;;5021450;28;20738;-72
2023/10/12 02:24:35;;;;;;;25.63;12.53;;;;;17.80;100710.00;;;;5016652;28;20237;-73
2023/10/12 02:27:23;;;;;;;24.33;13.23;;;;;17.80;100692.00;;;;5023983;28;20226;-70
2023/10/12 02:30:18;;;;;;;25.37;13.30;;;;;17.80;100697.00;;;;5027111;28;20213;-71
2023/10/12 02:33:07;;;;;;;24.70;12.83;;;;;17.80;100700.00;;;;5024113;28;20268;-70
2023/10/12 02:35:54;;;;;;;26.33;13.50;;;;;17.80;100708.00;;;;5026344;28;20213;-71
2023/10/12 02:38:42;;;;;;;26.70;13.70;;;;;17.70;100710.00;;;;5024971;28;20213;-72
2023/10/12 02:41:28;;;;;;;27.30;13.33;;;;;17.70;100726.00;;;;5013734;28;20225;-69
2023/10/12 02:44:15;;;;;;;26.07;14.10;;;;;17.70;100718.00;;;;5028173;28;20240;-69
2023/10/12 02:47:12;;;;;;;24.43;14.30;;;;;17.70;100715.00;;;;5023464;28;20606;-70
2023/10/12 02:50:14;;;;;;;24.33;13.40;;;;;17.70;100701.00;;;;5028557;28;20284;-72
2023/10/12 02:53:08;;;;;;;27.47;14.40;;;;;17.60;100717.00;;;;5026476;28;20252;-70
2023/10/12 02:55:58;;;;;;;29.70;14.70;;;;;17.60;100711.00;;;;5025062;28;20222;-70
2023/10/12 02:58:45;;;;;;;29.33;15.30;;;;;17.60;100715.00;;;;5022368;28;20215;-70
2023/10/12 03:01:31;;;;;;;25.70;14.07;;;;;17.60;100715.00;;;;5021609;28;20288;-73
2023/10/12 03:04:19;;;;;;;32.97;15.03;;;;;17.60;100713.00;;;;5029080;28;20236;-72
2023/10/12 03:07:11;;;;;;;26.37;15.00;;;;;17.60;100711.00;;;;5025370;28;20210;-67
2023/10/12 03:09:59;;;;;;;27.03;14.90;;;;;17.60;100703.00;;;;5026621;28;20209;-70
2023/10/12 03:12:45;;;;;;;30.13;15.37;;;;;17.50;100695.00;;;;5026465;28;20600;-70
2023/10/12 03:15:41;;;;;;;30.20;15.23;;;;;17.50;100699.00;;;;5014425;28;21238;-70
2023/10/12 03:18:28;;;;;;;27.83;14.70;;;;;17.50;100694.00;;;;5021254;28;20606;-72
2023/10/12 03:21:17;;;;;;;32.03;15.70;;;;;17.60;100698.00;;;;5027222;28;20276;-72
2023/10/12 03:24:05;;;;;;;25.70;15.50;;;;;17.50;100668.00;;;;5025606;28;20610;-71
2023/10/12 03:27:10;;;;;;;28.67;15.73;;;;;17.60;100670.00;;;;5023262;28;20239;-70
2023/10/12 03:30:06;;;;;;;26.97;16.27;;;;;17.50;100667.00;;;;5020670;28;20220;-73
2023/10/12 03:32:53;;;;;;;32.67;16.60;;;;;17.50;100679.00;;;;5023936;28;20248;-70
2023/10/12 03:35:51;;;;;;;31.40;16.03;;;;;17.50;100685.00;;;;5027080;28;20255;-72
2023/10/12 03:38:39;;;;;;;35.57;16.60;;;;;17.50;100699.00;;;;5021089;28;20300;-70
2023/10/12 03:44:40;;;;;;;33.00;16.87;;;;;17.50;100706.00;;;;5025684;28;20232;-69
2023/10/12 03:47:31;;;;;;;31.10;16.97;;;;;17.50;100716.00;;;;5027586;28;20209;-71
2023/10/12 03:50:19;;;;;;;34.27;18.10;;;;;17.60;100711.00;;;;5020699;28;20213;-70
2023/10/12 03:53:06;;;;;;;33.43;17.53;;;;;17.50;100692.00;;;;5025315;28;20295;-70
2023/10/12 03:55:57;;;;;;;33.60;17.50;;;;;17.50;100682.00;;;;5023064;28;20257;-71
2023/10/12 03:58:57;;;;;;;33.17;17.37;;;;;17.50;100694.00;;;;5026100;28;20285;-71
2023/10/12 04:01:44;;;;;;;34.70;17.50;;;;;17.60;100676.00;;;;5021321;28;20218;-71
2023/10/12 04:04:34;;;;;;;30.23;17.53;;;;;17.50;100665.00;;;;5016468;28;20284;-71
2023/10/12 04:07:37;;;;;;;35.47;18.40;;;;;17.50;100681.00;;;;5024976;28;20761;-70
2023/10/12 04:11:49;;;;;;;33.07;17.03;;;;;17.60;100694.00;;;;5026828;28;20251;-68
2023/10/12 04:14:10;;;;;;;33.43;18.23;;;;;17.50;100695.00;;;;5027654;28;20605;-71
2023/10/12 04:17:07;;;;;;;37.77;18.40;;;;;17.50;100701.00;;;;5019694;28;20610;-69
2023/10/12 04:20:12;;;;;;;37.70;18.80;;;;;17.40;100708.00;;;;5023779;28;20210;-71
2023/10/12 04:23:34;;;;;;;35.53;17.20;;;;;17.40;100709.00;;;;5021276;28;20226;-70
2023/10/12 04:26:38;;;;;;;30.67;16.77;;;;;17.40;100709.00;;;;5021639;28;20727;-69
2023/10/12 04:29:30;;;;;;;28.33;16.83;;;;;17.30;100710.00;;;;5021351;28;20221;-70
2023/10/12 04:32:37;;;;;;;33.90;17.57;;;;;17.30;100718.00;;;;5022030;28;20614;-72
2023/10/12 04:36:09;;;;;;;36.50;17.83;;;;;17.30;100728.00;;;;5022277;28;20217;-72
2023/10/12 04:38:46;;;;;;;34.43;16.93;;;;;17.30;100717.00;;;;5025176;28;20687;-71
2023/10/12 04:41:41;;;;;;;30.27;17.70;;;;;17.20;100683.00;;;;5020119;28;20811;-71
2023/10/12 04:44:43;;;;;;;29.87;17.27;;;;;17.20;100677.00;;;;5017831;28;20334;-70
2023/10/12 04:47:30;;;;;;;29.20;16.73;;;;;17.30;100683.00;;;;5026005;28;20209;-71
2023/10/12 04:50:27;;;;;;;35.13;16.93;;;;;17.20;100692.00;;;;5009770;28;20325;-71
2023/10/12 04:53:14;;;;;;;25.93;16.37;;;;;17.20;100703.00;;;;5024072;28;20233;-71
2023/10/12 04:56:09;;;;;;;29.53;17.03;;;;;17.20;100703.00;;;;5024694;28;20284;-73
2023/10/12 04:58:59;;;;;;;30.20;15.70;;;;;17.20;100711.00;;;;5020601;28;20276;-72
2023/10/12 05:02:13;;;;;;;26.53;15.27;;;;;17.20;100703.00;;;;5022643;28;20217;-71
2023/10/12 05:05:37;;;;;;;28.47;14.70;;;;;17.20;100717.00;;;;5025306;28;20332;-70
2023/10/12 05:08:21;;;;;;;27.53;15.27;;;;;17.10;100730.00;;;;5023551;28;20237;-71
2023/10/12 05:11:09;;;;;;;26.83;14.80;;;;;17.20;100729.00;;;;5019743;28;20743;-72
2023/10/12 05:13:55;;;;;;;29.40;15.40;;;;;17.10;100732.00;;;;5020904;28;20244;-71
2023/10/12 05:16:43;;;;;;;28.63;15.67;;;;;17.10;100735.00;;;;5022317;28;20866;-70
2023/10/12 05:19:31;;;;;;;30.77;15.67;;;;;17.10;100737.00;;;;5014862;28;20226;-72
2023/10/12 05:22:17;;;;;;;32.57;16.07;;;;;17.10;100741.00;;;;5017982;28;20246;-72
2023/10/12 05:25:04;;;;;;;28.80;15.70;;;;;17.10;100745.00;;;;5014890;28;20292;-72
2023/10/12 05:28:08;;;;;;;31.03;17.00;;;;;17.10;100737.00;;;;5019784;28;20225;-71
2023/10/12 05:30:59;;;;;;;28.57;16.50;;;;;17.10;100746.00;;;;5017361;28;20260;-71
2023/10/12 05:36:42;;;;;;;26.17;15.37;;;;;17.10;100741.00;;;;5074809;28;20563;-73
2023/10/12 05:39:28;;;;;;;31.90;16.80;;;;;17.00;100742.00;;;;5082542;28;20218;-72
2023/10/12 05:42:15;;;;;;;33.23;16.10;;;;;17.10;100748.00;;;;5080852;28;20257;-75
2023/10/12 05:45:19;;;;;;;32.77;16.37;;;;;17.10;100743.00;;;;5057206;28;20217;-71
2023/10/12 05:48:08;;;;;;;30.70;15.47;;;;;17.00;100736.00;;;;5058719;28;20220;-71
2023/10/12 05:50:54;;;;;;;28.03;15.60;;;;;17.00;100749.00;;;;5050677;28;20585;-71
2023/10/12 05:53:42;;;;;;;28.23;15.23;;;;;17.00;100740.00;;;;5057958;28;20633;-70
2023/10/12 05:56:29;;;;;;;30.37;15.77;;;;;17.10;100739.00;;;;5060986;28;20231;-71
2023/10/12 05:59:18;;;;;;;29.07;16.13;;;;;17.00;100746.00;;;;5059063;28;20295;-71
2023/10/12 06:02:04;;;;;;;33.77;16.13;;;;;17.00;100745.00;;;;5051875;28;20221;-70
2023/10/12 06:04:51;;;;;;;27.27;15.03;;;;;17.00;100749.00;;;;5051916;28;20212;-73
2023/10/12 06:07:37;;;;;;;27.80;15.70;;;;;17.00;100750.00;;;;5058266;28;20205;-69
2023/10/12 06:10:27;;;;;;;27.97;14.63;;;;;17.00;100751.00;;;;5052486;28;20291;-70
2023/10/12 06:13:15;;;;;;;29.73;15.33;;;;;17.00;100742.00;;;;5056259;28;20754;-71
2023/10/12 06:16:01;;;;;;;27.27;14.53;;;;;17.00;100735.00;;;;5050062;28;20345;-71
2023/10/12 06:18:49;;;;;;;27.27;14.63;;;;;17.00;100749.00;;;;5054999;28;20720;-71
2023/10/12 06:21:42;;;;;;;27.90;15.40;;;;;17.00;100759.00;;;;5061203;28;20215;-71
2023/10/12 06:24:35;;;;;;;25.67;13.73;;;;;17.00;100764.00;;;;5054088;28;20237;-71
2023/10/12 06:27:23;;;;;;;31.50;14.33;;;;;17.00;100773.00;;;;5061823;28;20224;-73
2023/10/12 06:30:18;;;;;;;29.70;13.73;;;;;17.00;100764.00;;;;5058641;28;20204;-71
2023/10/12 06:33:07;;;;;;;24.13;14.07;;;;;17.10;100770.00;;;;5049617;28;20240;-71
2023/10/12 06:36:03;;;;;;;25.97;14.03;;;;;17.10;100782.00;;;;5049958;28;20294;-72
2023/10/12 06:39:23;;;;;;;28.90;13.70;;;;;17.10;100775.00;;;;5060074;28;20208;-73
2023/10/12 06:41:59;;;;;;;26.73;13.87;;;;;17.00;100788.00;;;;5055368;28;20204;-69
2023/10/12 06:44:50;;;;;;;30.47;13.90;;;;;17.00;100788.00;;;;5056342;28;20220;-72
2023/10/12 06:47:42;;;;;;;30.07;14.27;;;;;17.00;100784.00;;;;5047672;28;20224;-72
2023/10/12 06:50:27;;;;;;;24.00;13.97;;;;;17.00;100787.00;;;;5046202;28;20221;-71
2023/10/12 06:53:13;;;;;;;28.27;13.47;;;;;17.00;100796.00;;;;5039742;28;20241;-71
2023/10/12 06:56:16;;;;;;;24.00;12.67;;;;;17.00;100785.00;;;;5040764;28;20232;-70
2023/10/12 06:59:12;;;;;;;25.37;13.23;;;;;17.00;100803.00;;;;5042596;28;20213;-72
2023/10/12 07:02:09;;;;;;;25.53;13.73;;;;;17.00;100797.00;;;;5041323;28;20577;-71
2023/10/12 07:04:57;;;;;;;26.83;13.87;;;;;16.90;100799.00;;;;5034948;28;20419;-72
2023/10/12 07:07:43;;;;;;;24.80;12.93;;;;;16.90;100799.00;;;;5044670;28;20268;-72
2023/10/12 07:10:30;;;;;;;27.07;12.60;;;;;17.00;100807.00;;;;5037932;28;20710;-72
2023/10/12 07:13:16;;;;;;;26.77;12.27;;;;;16.90;100816.00;;;;5046152;28;20233;-70
2023/10/12 07:16:06;;;;;;;21.27;12.30;;;;;16.90;100818.00;;;;5035286;28;20757;-73
2023/10/12 07:18:54;;;;;;;27.87;13.43;;;;;16.90;100815.00;;;;5047521;28;20303;-70
2023/10/12 07:21:55;;;;;;;23.43;12.57;;;;;17.00;100824.00;;;;5047970;28;20356;-68
2023/10/12 07:24:42;;;;;;;25.13;12.43;;;;;16.90;100820.00;;;;5040047;28;20242;-70
2023/10/12 07:27:29;;;;;;;26.50;12.67;;;;;17.00;100836.00;;;;5039599;28;20226;-71
2023/10/12 07:30:30;;;;;;;23.90;12.07;;;;;17.00;100825.00;;;;5041844;28;20216;-72
2023/10/12 07:33:22;;;;;;;27.00;12.67;;;;;16.90;100837.00;;;;5043373;28;20232;-73
2023/10/12 07:36:17;;;;;;;24.97;12.00;;;;;17.00;100836.00;;;;5042756;28;20266;-72
2023/10/12 07:39:17;;;;;;;20.53;12.33;;;;;17.00;100836.00;;;;5045550;28;20747;-71
2023/10/12 07:42:05;;;;;;;23.97;12.07;;;;;17.00;100827.00;;;;5043948;28;20213;-72
2023/10/12 07:44:54;;;;;;;23.80;11.40;;;;;17.00;100849.00;;;;5040337;28;20571;-71
2023/10/12 07:47:41;;;;;;;19.73;10.53;;;;;17.00;100849.00;;;;5040325;28;20225;-70
2023/10/12 07:50:30;;;;;;;19.90;11.17;;;;;17.10;100855.00;;;;5037482;28;20353;-70
2023/10/12 07:53:24;;;;;;;24.03;10.90;;;;;17.10;100863.00;;;;5040539;28;20715;-71
2023/10/12 07:56:15;;;;;;;22.30;11.03;;;;;17.00;100861.00;;;;5038254;28;20357;-70
2023/10/12 07:59:13;;;;;;;21.07;10.90;;;;;17.00;100858.00;;;;5044062;28;20685;-71
2023/10/12 08:02:08;;;;;;;18.93;9.87;;;;;17.10;100863.00;;;;5043608;28;20705;-72
2023/10/12 08:04:58;;;;;;;24.30;10.23;;;;;17.00;100864.00;;;;5046029;28;20694;-71
2023/10/12 08:07:59;;;;;;;28.33;10.87;;;;;17.10;100866.00;;;;5042824;28;20217;-70
2023/10/12 08:10:58;;;;;;;19.33;10.20;;;;;17.10;100870.00;;;;5046537;28;20425;-71
2023/10/12 08:13:49;;;;;;;18.77;9.80;;;;;17.10;100861.00;;;;5041349;28;20233;-72
2023/10/12 08:16:40;;;;;;;22.80;10.27;;;;;17.10;100877.00;;;;5042436;28;20233;-68
2023/10/12 08:19:29;;;;;;;22.67;9.70;;;;;17.10;100867.00;;;;5042441;28;20205;-72
2023/10/12 08:22:25;;;;;;;18.13;9.97;;;;;17.10;100866.00;;;;5040237;28;20205;-74
2023/10/12 08:25:13;;;;;;;20.70;10.40;;;;;17.00;100864.00;;;;5038529;28;20201;-72
2023/10/12 08:28:18;;;;;;;19.83;10.40;;;;;17.10;100871.00;;;;5045012;28;20260;-70
2023/10/12 08:31:05;;;;;;;19.03;9.97;;;;;17.10;100877.00;;;;5034213;28;20225;-73
2023/10/12 08:33:58;;;;;;;19.83;9.93;;;;;17.10;100878.00;;;;5041055;28;20225;-73
2023/10/12 08:37:08;;;;;;;18.00;10.17;;;;;17.10;100882.00;;;;5041393;28;20246;-71
2023/10/12 08:40:07;;;;;;;15.70;9.37;;;;;17.00;100890.00;;;;5042076;28;20217;-71
2023/10/12 08:42:55;;;;;;;14.07;9.00;;;;;17.00;100880.00;;;;5035896;28;20233;-72
2023/10/12 08:45:43;;;;;;;19.53;9.87;;;;;17.10;100889.00;;;;5041122;28;20212;-71
2023/10/12 08:48:34;;;;;;;17.40;9.40;;;;;17.00;100882.00;;;;5034438;28;20228;-71
2023/10/12 08:51:31;;;;;;;21.53;10.33;;;;;17.00;100893.00;;;;5035732;28;20603;-71
2023/10/12 08:54:20;;;;;;;18.73;9.77;;;;;17.00;100882.00;;;;5037552;28;20220;-71
2023/10/12 08:57:17;;;;;;;18.00;9.23;;;;;17.00;100887.00;;;;5037623;28;20356;-74
2023/10/12 09:00:24;;;;;;;18.10;9.53;;;;;17.00;100884.00;;;;5030460;28;20590;-72
2023/10/12 09:03:28;;;;;;;16.73;9.93;;;;;17.10;100889.00;;;;5040714;28;20303;-73
2023/10/12 09:06:29;;;;;;;18.70;9.87;;;;;17.20;100885.00;;;;5038872;28;20303;-70
2023/10/12 09:09:48;;;;;;;16.13;9.80;;;;;17.10;100888.00;;;;5040161;28;20272;-73
2023/10/12 09:12:21;;;;;;;18.10;10.17;;;;;17.20;100892.00;;;;5030642;28;20218;-73
2023/10/12 09:15:18;;;;;;;17.13;9.43;;;;;17.20;100894.00;;;;5035995;28;20256;-71
2023/10/12 09:18:09;;;;;;;20.63;9.10;;;;;17.20;100890.00;;;;5033903;28;20221;-72
2023/10/12 09:21:16;;;;;;;20.93;10.03;;;;;17.20;100900.00;;;;5042613;28;20221;-73
2023/10/12 09:24:14;;;;;;;23.07;9.90;;;;;17.20;100893.00;;;;5043355;28;20952;-71
2023/10/12 09:27:11;;;;;;;19.63;9.60;;;;;17.20;100905.00;;;;5036800;28;20205;-73
2023/10/12 09:29:58;;;;;;;19.97;10.17;;;;;17.20;100898.00;;;;5034298;28;20351;-71
2023/10/12 09:33:05;;;;;;;21.87;10.17;;;;;17.20;100899.00;;;;5045400;28;20395;-71
2023/10/12 09:35:58;;;;;;;17.43;9.97;;;;;17.20;100900.00;;;;5045213;28;20220;-71
2023/10/12 09:38:46;;;;;;;18.70;10.00;;;;;17.30;100897.00;;;;5036212;28;20822;-71
2023/10/12 09:41:39;;;;;;;19.83;9.93;;;;;17.20;100909.00;;;;5033595;28;20210;-72
2023/10/12 09:44:27;;;;;;;23.63;10.10;;;;;17.20;100903.00;;;;5034909;28;20997;-71
2023/10/12 09:47:16;;;;;;;19.17;10.20;;;;;17.30;100907.00;;;;5038574;28;20217;-71
2023/10/12 09:50:13;;;;;;;20.20;9.50;;;;;17.20;100904.00;;;;5039881;28;20204;-68
2023/10/12 09:53:12;;;;;;;16.20;9.33;;;;;17.20;100912.00;;;;5038537;28;20236;-69
2023/10/12 09:56:15;;;;;;;15.60;9.33;;;;;17.20;100907.00;;;;5040023;28;20213;-69
2023/10/12 09:59:08;;;;;;;22.10;9.87;;;;;17.20;100907.00;;;;5039636;28;20284;-72
2023/10/12 10:02:01;;;;;;;20.77;9.37;;;;;17.20;100913.00;;;;5027864;28;20845;-72
2023/10/12 10:04:57;;;;;;;19.43;9.67;;;;;17.30;100906.00;;;;5027893;28;20237;-69
2023/10/12 10:07:52;;;;;;;21.10;9.50;;;;;17.30;100897.00;;;;5036436;28;20206;-70
2023/10/12 10:10:39;;;;;;;16.97;9.63;;;;;17.20;100901.00;;;;5030880;28;20606;-70
2023/10/12 10:13:40;;;;;;;18.10;9.60;;;;;17.20;100897.00;;;;5035029;28;20351;-75
2023/10/12 10:16:37;;;;;;;19.97;9.70;;;;;17.20;100894.00;;;;5035231;28;20324;-72
2023/10/12 10:19:28;;;;;;;19.03;10.20;;;;;17.20;100885.00;;;;5045440;28;20906;-71
2023/10/12 10:22:15;;;;;;;16.47;9.63;;;;;17.20;100871.00;;;;5033861;28;20205;-74
2023/10/12 10:25:06;;;;;;;20.63;9.63;;;;;17.30;100871.00;;;;5033354;28;20251;-73
2023/10/12 10:27:56;;;;;;;19.80;9.30;;;;;17.20;100878.00;;;;5032098;28;20213;-72
2023/10/12 10:30:49;;;;;;;20.83;10.03;;;;;17.30;100872.00;;;;5040237;28;20212;-73
2023/10/12 10:33:37;;;;;;;18.73;10.27;;;;;17.30;100874.00;;;;5043351;28;20267;-72
2023/10/12 10:36:25;;;;;;;26.97;10.03;;;;;17.30;100871.00;;;;5030748;28;20260;-73
2023/10/12 10:42:12;;;;;;;24.80;10.27;;;;;17.30;100886.00;;;;5041011;28;20209;-73
2023/10/12 10:45:12;;;;;;;19.50;9.67;;;;;17.30;100889.00;;;;5037597;28;20308;-74
2023/10/12 10:48:03;;;;;;;19.70;9.70;;;;;17.30;100892.00;;;;5034805;28;20280;-73
2023/10/12 10:51:18;;;;;;;16.73;9.20;;;;;17.30;100888.00;;;;5037768;28;20217;-73
2023/10/12 10:54:12;;;;;;;20.80;10.03;;;;;17.30;100884.00;;;;5044949;28;20273;-71
2023/10/12 10:56:59;;;;;;;16.07;9.33;;;;;17.30;100882.00;;;;5048354;28;20281;-72
2023/10/12 10:59:46;;;;;;;18.90;9.63;;;;;17.40;100888.00;;;;5039402;28;20224;-72
2023/10/12 11:02:35;;;;;;;20.03;10.40;;;;;17.50;100886.00;;;;5037093;28;20210;-72
2023/10/12 11:05:28;;;;;;;21.03;9.10;;;;;17.50;100877.00;;;;5038817;28;20712;-70
2023/10/12 11:08:22;;;;;;;18.27;9.37;;;;;17.50;100884.00;;;;5047905;28;20221;-71
2023/10/12 11:11:25;;;;;;;18.93;9.43;;;;;17.60;100888.00;;;;5041529;28;20213;-72
2023/10/12 11:14:17;;;;;;;17.93;9.53;;;;;17.60;100875.00;;;;5046187;28;20228;-72
2023/10/12 11:17:05;;;;;;;19.73;9.63;;;;;17.70;100890.00;;;;5045011;28;20578;-70
2023/10/12 11:19:51;;;;;;;18.13;9.93;;;;;17.70;100887.00;;;;5047995;28;20216;-74
2023/10/12 11:22:42;;;;;;;21.20;9.90;;;;;17.80;100876.00;;;;5042411;28;20221;-70
2023/10/12 11:25:29;;;;;;;16.77;9.43;;;;;17.80;100874.00;;;;5041113;28;20299;-72
2023/10/12 11:28:23;;;;;;;22.27;10.00;;;;;17.80;100868.00;;;;5040410;28;20228;-73
2023/10/12 11:31:20;;;;;;;21.17;10.67;;;;;17.80;100866.00;;;;5040508;28;20694;-72
2023/10/12 11:34:23;;;;;;;19.50;9.33;;;;;17.80;100859.00;;;;5044229;28;20602;-72
2023/10/12 11:37:09;;;;;;;17.87;9.53;;;;;17.90;100851.00;;;;5042581;28;20803;-71
2023/10/12 11:39:57;;;;;;;16.73;9.67;;;;;17.90;100856.00;;;;5038905;28;20267;-70
2023/10/12 11:42:52;;;;;;;17.73;9.77;;;;;17.80;100855.00;;;;5042787;28;20225;-70
2023/10/12 11:45:56;;;;;;;19.30;9.90;;;;;17.80;100863.00;;;;5038338;28;20784;-72
2023/10/12 11:48:42;;;;;;;17.10;9.57;;;;;17.80;100853.00;;;;5038338;28;20239;-70
2023/10/12 11:51:28;;;;;;;24.23;10.07;;;;;17.90;100850.00;;;;5032247;28;20218;-68
2023/10/12 11:54:20;;;;;;;23.33;10.83;;;;;17.90;100849.00;;;;5041139;28;20230;-72
2023/10/12 11:57:10;;;;;;;25.50;10.70;;;;;18.00;100850.00;;;;5034914;28;20209;-72
2023/10/12 11:59:58;;;;;;;16.77;9.57;;;;;18.00;100861.00;;;;5037970;28;20213;-70
2023/10/12 12:02:45;;;;;;;22.10;10.60;;;;;18.00;100850.00;;;;5039342;28;20746;-71
2023/10/12 12:05:32;;;;;;;20.80;9.90;;;;;18.00;100852.00;;;;5032852;28;20224;-72
2023/10/12 12:08:19;;;;;;;19.00;10.37;;;;;18.10;100864.00;;;;5034197;28;20295;-71
2023/10/12 12:11:09;;;;;;;24.57;10.10;;;;;18.10;100855.00;;;;5039956;28;20213;-71
2023/10/12 12:13:57;;;;;;;19.13;10.33;;;;;18.10;100853.00;;;;5043547;28;20893;-70
2023/10/12 12:16:43;;;;;;;22.47;11.13;;;;;18.20;100855.00;;;;5043468;28;20824;-71
2023/10/12 12:19:33;;;;;;;18.30;10.03;;;;;18.20;100850.00;;;;5043671;28;20282;-70
2023/10/12 12:22:22;;;;;;;18.67;10.87;;;;;18.20;100832.00;;;;5038621;28;20707;-70
2023/10/12 12:25:17;;;;;;;23.60;10.47;;;;;18.30;100838.00;;;;5035896;28;21182;-72
2023/10/12 12:28:04;;;;;;;22.43;10.80;;;;;18.30;100834.00;;;;5047588;28;20213;-70
2023/10/12 12:30:55;;;;;;;22.00;11.50;;;;;18.40;100826.00;;;;5042458;28;20291;-69
2023/10/12 12:33:46;;;;;;;22.87;11.07;;;;;18.30;100823.00;;;;5043671;28;20224;-71
2023/10/12 12:36:32;;;;;;;20.43;11.00;;;;;18.40;100829.00;;;;5047561;28;20240;-73
2023/10/12 12:39:22;;;;;;;19.70;11.10;;;;;18.40;100819.00;;;;5039025;28;20233;-72
2023/10/12 12:42:10;;;;;;;21.57;10.47;;;;;18.40;100816.00;;;;5037972;28;20292;-71
2023/10/12 12:44:56;;;;;;;23.97;11.57;;;;;18.40;100825.00;;;;5034529;28;20209;-72
2023/10/12 12:47:46;;;;;;;18.80;10.37;;;;;18.40;100821.00;;;;5040459;28;20332;-72
2023/10/12 12:50:32;;;;;;;23.13;10.37;;;;;18.30;100810.00;;;;5033489;28;20682;-73
2023/10/12 12:53:18;;;;;;;23.07;10.93;;;;;18.30;100809.00;;;;5036190;28;20767;-72
2023/10/12 12:56:08;;;;;;;18.63;11.10;;;;;18.30;100818.00;;;;5037306;28;20272;-73
2023/10/12 12:58:54;;;;;;;20.00;10.53;;;;;18.30;100822.00;;;;5043526;28;20607;-71
2023/10/12 13:01:41;;;;;;;20.87;11.87;;;;;18.30;100811.00;;;;5039059;28;20275;-73
2023/10/12 13:04:30;;;;;;;22.60;11.10;;;;;18.30;100806.00;;;;5040473;28;20248;-72
2023/10/12 13:07:19;;;;;;;22.20;11.63;;;;;18.30;100806.00;;;;5044712;28;20216;-73
2023/10/12 13:10:08;;;;;;;22.60;10.87;;;;;18.30;100814.00;;;;5033498;28;20360;-75
2023/10/12 13:12:54;;;;;;;24.80;12.07;;;;;18.20;100816.00;;;;5043716;28;20583;-72
2023/10/12 13:15:42;;;;;;;18.30;11.40;;;;;18.30;100816.00;;;;5037966;28;20328;-73
2023/10/12 13:18:30;;;;;;;24.97;12.03;;;;;18.30;100820.00;;;;5040349;28;20241;-73
2023/10/12 13:21:22;;;;;;;22.60;11.23;;;;;18.30;100815.00;;;;5039831;28;20758;-71
2023/10/12 13:24:08;;;;;;;23.77;12.03;;;;;18.30;100821.00;;;;5044809;28;20233;-68
2023/10/12 13:26:55;;;;;;;23.53;11.50;;;;;18.30;100826.00;;;;5043575;28;20580;-71
2023/10/12 13:29:43;;;;;;;21.97;11.27;;;;;18.30;100821.00;;;;5030640;28;20220;-71
2023/10/12 13:32:29;;;;;;;18.53;10.57;;;;;18.30;100824.00;;;;5035523;28;20578;-72
2023/10/12 13:35:28;;;;;;;21.83;11.10;;;;;18.30;100812.00;;;;5039198;28;20337;-71
2023/10/12 13:38:16;;;;;;;21.40;11.23;;;;;18.30;100824.00;;;;5042151;28;20706;-73
2023/10/12 13:41:03;;;;;;;22.23;10.57;;;;;18.30;100822.00;;;;5027617;28;20691;-71
2023/10/12 13:43:49;;;;;;;25.53;11.73;;;;;18.30;100812.00;;;;5037738;28;20233;-72
2023/10/12 13:46:38;;;;;;;19.53;9.97;;;;;18.30;100813.00;;;;5039231;28;20927;-72
2023/10/12 13:49:24;;;;;;;19.57;10.27;;;;;18.20;100822.00;;;;5031576;28;20251;-72
2023/10/12 13:52:11;;;;;;;24.30;11.07;;;;;18.20;100818.00;;;;5040669;28;20316;-72
2023/10/12 13:55:00;;;;;;;25.10;11.03;;;;;18.20;100824.00;;;;5034342;28;20208;-70
2023/10/12 13:57:55;;;;;;;18.20;10.80;;;;;18.20;100819.00;;;;5045269;28;20208;-72
2023/10/12 14:00:42;;;;;;;21.70;10.13;;;;;18.20;100816.00;;;;5036995;28;20317;-74